Terminal Aerodrome Forecast
Issued by NWS Duluth, MN

Home | Current Version | Previous Version | Text Only | Print | Product List | Glossary On
Versions: 1 2 3 4 5 6 7 8 9 10 11 12 13 14 15 16 17 18 19 20 21 22 23 24 25 26 27 28 29
437
FTUS43 KDLH 171108 AAB
TAFDLH
TAF AMD
KDLH 171108Z 1711/1806 13015KT P6SM SCT020 OVC070 WS020/18035KT
     FM171300 18011KT P6SM VCSH OVC015
     FM171500 19008KT 5SM -RASN OVC008
     FM172200 26004KT 4SM -RA OVC008
     FM180000 31005KT P6SM OVC008
     FM180500 34009KT P6SM BKN045=

USA.gov is the U.S. government's official web portal to all federal, state and local government web resources and services.